Time;durP1;ratioP1;P1;durP2;ratioP2;P2;SDS_P1;SDS_P2;PMS_P1;PMS_P2;Temp;Humidity;BMP_temperature;BMP_pressure;BME280_temperature;BME280_humidity;BME280_pressure;Samples;Min_cycle;Max_cycle;Signal;HPM_P1;HPM_P2
2023/05/30 00:00:43;;;;;;;6.03;3.70;;;;;;;11.28;64.40;96237.31;2097347;28;20063;-61
2023/05/30 00:01:44;;;;;;;8.40;3.58;;;;;;;11.27;64.14;96240.81;2097746;28;20045;-61
2023/05/30 00:02:45;;;;;;;6.45;3.60;;;;;;;11.26;63.64;96239.97;2097012;28;20060;-61
2023/05/30 00:03:47;;;;;;;6.30;3.33;;;;;;;11.24;63.14;96235.75;2097612;28;20060;-61
2023/05/30 00:04:49;;;;;;;5.72;3.60;;;;;;;11.27;63.62;96236.44;2097180;28;20053;-61
2023/05/30 00:05:50;;;;;;;6.07;3.55;;;;;;;11.30;63.78;96242.44;2097188;28;20053;-61
2023/05/30 00:06:51;;;;;;;5.95;3.47;;;;;;;11.33;63.28;96237.94;2097852;28;20094;-61
2023/05/30 00:07:52;;;;;;;7.53;3.63;;;;;;;11.34;63.15;96236.19;2097212;28;20052;-61
2023/05/30 00:08:54;;;;;;;6.93;3.85;;;;;;;11.34;63.31;96238.78;2088667;28;20056;-61
2023/05/30 00:09:55;;;;;;;6.78;3.97;;;;;;;11.35;62.74;96237.88;2088902;28;20056;-60
2023/05/30 00:10:56;;;;;;;7.60;4.28;;;;;;;11.35;62.86;96232.66;2097418;28;20056;-61
2023/05/30 00:11:58;;;;;;;7.20;3.50;;;;;;;11.35;63.14;96237.88;2097335;28;20049;-61
2023/05/30 00:12:59;;;;;;;6.35;3.80;;;;;;;11.35;62.49;96238.69;2097037;28;20052;-61
2023/05/30 00:14:01;;;;;;;7.43;3.80;;;;;;;11.35;62.21;96243.06;2097209;28;20407;-68
2023/05/30 00:15:03;;;;;;;8.85;3.90;;;;;;;11.24;63.31;96223.59;2097036;28;20048;-70
2023/05/30 00:16:04;;;;;;;6.45;3.60;;;;;;;11.33;62.72;96237.94;2097830;28;20476;-70
2023/05/30 00:17:05;;;;;;;5.30;3.53;;;;;;;11.38;62.43;96241.16;2097539;28;20055;-70
2023/05/30 00:18:06;;;;;;;5.63;3.35;;;;;;;11.40;62.40;96244.53;2098702;28;20057;-71
2023/05/30 00:19:07;;;;;;;5.43;3.47;;;;;;;11.46;61.56;96240.81;2099363;28;20044;-71
2023/05/30 00:20:09;;;;;;;7.13;3.72;;;;;;;11.43;61.97;96233.16;2099234;28;20377;-71
2023/05/30 00:21:10;;;;;;;7.03;4.03;;;;;;;11.40;62.98;96238.50;2099438;28;20531;-70
2023/05/30 00:22:11;;;;;;;8.88;3.55;;;;;;;11.45;62.86;96237.38;2098650;28;20064;-71
2023/05/30 00:23:12;;;;;;;6.00;3.58;;;;;;;11.44;62.74;96240.91;2098917;28;20053;-70
2023/05/30 00:24:13;;;;;;;7.05;3.53;;;;;;;11.43;62.59;96251.34;2098788;28;20056;-70
2023/05/30 00:25:16;;;;;;;6.00;3.55;;;;;;;11.42;62.63;96244.47;2099635;28;20075;-70
2023/05/30 00:26:17;;;;;;;9.32;3.80;;;;;;;11.44;62.32;96247.81;2099284;28;20044;-71
2023/05/30 00:27:26;;;;;;;7.22;3.50;;;;;;;11.45;62.25;96245.16;2098748;28;20484;-70
2023/05/30 00:28:27;;;;;;;5.05;3.38;;;;;;;11.44;61.97;96247.81;2089738;28;20096;-70
2023/05/30 00:29:28;;;;;;;7.75;3.83;;;;;;;11.47;62.26;96247.72;2089945;28;20056;-71
2023/05/30 00:30:31;;;;;;;8.20;3.58;;;;;;;11.45;61.72;96239.97;2089454;28;20053;-71
2023/05/30 00:31:32;;;;;;;6.38;3.40;;;;;;;11.39;62.04;96239.41;2089918;28;20545;-71
2023/05/30 00:32:35;;;;;;;6.55;3.50;;;;;;;11.42;61.52;96236.69;2098677;28;20064;-71
2023/05/30 00:33:36;;;;;;;6.82;3.40;;;;;;;11.42;61.41;96245.31;2099311;28;20098;-71
2023/05/30 00:34:37;;;;;;;7.05;3.22;;;;;;;11.50;61.43;96244.13;2090366;28;20048;-71
2023/05/30 00:35:39;;;;;;;5.75;3.40;;;;;;;11.55;62.18;96245.59;2089712;28;20053;-71
2023/05/30 00:36:40;;;;;;;7.80;3.70;;;;;;;11.53;61.39;96236.19;2089606;28;20083;-70
2023/05/30 00:37:41;;;;;;;5.97;3.42;;;;;;;11.53;61.62;96233.56;2098561;28;20057;-71
2023/05/30 00:38:43;;;;;;;5.63;3.40;;;;;;;11.63;61.04;96253.88;2089562;28;20065;-70
2023/05/30 00:39:44;;;;;;;8.50;3.45;;;;;;;11.60;61.45;96246.22;2089802;28;20057;-71
2023/05/30 00:40:45;;;;;;;7.72;3.35;;;;;;;11.44;61.74;96229.63;2099280;28;20051;-70
2023/05/30 00:41:46;;;;;;;7.18;3.50;;;;;;;11.59;60.95;96252.31;2098502;28;20063;-70
2023/05/30 00:42:47;;;;;;;5.43;3.08;;;;;;;11.64;61.12;96252.94;2099378;28;20048;-70
2023/05/30 00:43:49;;;;;;;5.25;3.30;;;;;;;11.74;60.26;96250.75;2099187;28;20044;-70
2023/05/30 00:44:50;;;;;;;8.98;3.60;;;;;;;11.79;60.72;96246.19;2098494;28;20377;-70
2023/05/30 00:45:52;;;;;;;6.28;3.40;;;;;;;11.86;59.65;96251.94;2099253;28;20554;-71
2023/05/30 00:46:54;;;;;;;10.18;3.70;;;;;;;11.92;60.12;96251.66;2073367;28;20045;-70
2023/05/30 00:47:55;;;;;;;6.65;3.63;;;;;;;11.88;59.82;96234.50;2073848;28;20062;-70
2023/05/30 00:48:57;;;;;;;7.18;3.58;;;;;;;12.00;59.33;96246.06;2089567;28;20056;-70
2023/05/30 00:49:58;;;;;;;6.97;3.78;;;;;;;12.18;58.90;96254.75;2089954;28;20132;-70
2023/05/30 00:50:59;;;;;;;7.20;3.85;;;;;;;12.16;59.39;96252.22;2081057;28;20065;-70
2023/05/30 00:52:00;;;;;;;5.88;3.33;;;;;;;12.13;58.84;96248.03;2073738;28;20046;-70
2023/05/30 00:53:01;;;;;;;7.72;3.75;;;;;;;12.20;59.22;96243.34;2081821;28;20460;-71
2023/05/30 00:54:02;;;;;;;8.70;3.25;;;;;;;12.25;58.76;96248.31;2090161;28;20044;-70
2023/05/30 00:55:04;;;;;;;5.75;3.47;;;;;;;12.25;58.56;96248.31;2090180;28;20059;-70
2023/05/30 00:56:05;;;;;;;8.20;3.60;;;;;;;12.14;59.02;96235.84;2098662;28;20040;-70
2023/05/30 00:57:07;;;;;;;8.73;3.33;;;;;;;12.24;58.82;96249.22;2089443;28;20053;-70
2023/05/30 00:58:08;;;;;;;8.40;3.58;;;;;;;12.17;59.07;96227.03;2081985;28;20053;-71
2023/05/30 00:59:09;;;;;;;8.38;3.33;;;;;;;12.24;59.60;96246.63;2081988;28;20103;-70
2023/05/30 01:00:13;;;;;;;6.93;3.63;;;;;;;12.29;58.93;96240.25;2082040;28;20064;-71
2023/05/30 01:01:14;;;;;;;7.47;3.75;;;;;;;12.31;58.84;96245.41;2081907;28;20104;-70
2023/05/30 01:02:16;;;;;;;7.72;3.92;;;;;;;12.28;58.82;96246.41;2081688;28;20520;-71
2023/05/30 01:03:17;;;;;;;5.50;3.33;;;;;;;12.28;59.17;96240.38;2090161;28;20431;-71
2023/05/30 01:04:19;;;;;;;6.82;3.53;;;;;;;12.27;58.88;96246.47;2089601;28;20057;-58
2023/05/30 01:05:24;;;;;;;8.55;3.35;;;;;;;12.24;59.20;96244.03;2089443;28;20179;-57
2023/05/30 01:06:29;;;;;;;7.53;3.42;;;;;;;12.18;60.05;96226.09;2089939;28;20065;-57
2023/05/30 01:07:31;;;;;;;8.52;3.50;;;;;;;12.34;59.82;96240.88;2081703;28;20064;-57
2023/05/30 01:08:33;;;;;;;8.75;3.53;;;;;;;12.36;59.25;96248.63;2073591;28;20088;-58
2023/05/30 01:09:35;;;;;;;10.43;3.40;;;;;;;12.31;59.97;96245.41;2074000;28;20054;-58
2023/05/30 01:10:37;;;;;;;6.78;3.15;;;;;;;12.11;59.44;96218.63;2082160;28;20421;-58
2023/05/30 01:11:52;;;;;;;5.63;3.42;;;;;;;12.30;59.59;96247.19;2081684;28;20048;-58
2023/05/30 01:13:15;;;;;;;7.10;3.22;;;;;;;12.29;59.62;96252.44;2083194;28;20041;-58
2023/05/30 01:14:42;;;;;;;5.03;3.40;;;;;;;12.25;59.26;96246.56;2086134;28;20041;-59
2023/05/30 01:15:53;;;;;;;4.68;3.20;;;;;;;12.13;59.74;96231.53;2077483;28;20069;-58
2023/05/30 01:16:59;;;;;;;5.43;3.08;;;;;;;12.08;60.23;96226.59;2075148;28;20050;-58
2023/05/30 01:18:35;;;;;;;5.65;3.15;;;;;;;12.18;60.32;96250.38;2083081;28;20037;-58
2023/05/30 01:20:05;;;;;;;7.22;3.33;;;;;;;12.25;59.87;96243.97;2064614;28;20103;-58
2023/05/30 01:21:11;;;;;;;4.60;2.83;;;;;;;12.19;59.20;96243.41;2048990;29;20138;-58
2023/05/30 01:22:28;;;;;;;6.15;3.20;;;;;;;12.24;59.89;96244.03;2066924;28;20148;-57
2023/05/30 01:23:45;;;;;;;6.60;3.38;;;;;;;12.23;59.68;96243.19;2067772;28;20371;-58
2023/05/30 01:24:57;;;;;;;5.13;2.83;;;;;;;12.20;60.11;96243.34;2074995;28;20537;-58
2023/05/30 01:26:09;;;;;;;5.93;3.05;;;;;;;12.14;59.21;96231.47;2074720;28;20052;-58
2023/05/30 01:27:21;;;;;;;5.85;3.35;;;;;;;12.28;58.18;96241.19;2077565;28;20054;-58
2023/05/30 01:28:23;;;;;;;9.57;3.10;;;;;;;12.28;58.74;96241.19;2066626;28;20053;-57
2023/05/30 01:29:24;;;;;;;7.50;3.65;;;;;;;12.29;58.72;96237.66;2065423;28;20185;-58
2023/05/30 01:30:26;;;;;;;6.50;3.08;;;;;;;12.44;57.43;96235.22;2073396;28;20050;-57
2023/05/30 01:31:27;;;;;;;5.43;3.00;;;;;;;12.51;57.06;96236.56;2072746;28;20131;-58
2023/05/30 01:32:28;;;;;;;8.73;2.70;;;;;;;12.52;57.43;96236.50;2065741;28;20418;-57
2023/05/30 01:33:30;;;;;;;8.45;2.78;;;;;;;12.58;56.85;96241.41;2065086;28;20069;-58
2023/05/30 01:34:31;;;;;;;8.75;2.97;;;;;;;12.62;56.62;96238.66;2081378;28;20504;-58
2023/05/30 01:35:32;;;;;;;9.40;3.40;;;;;;;12.64;56.58;96239.41;2081498;28;20062;-58
2023/05/30 01:36:33;;;;;;;4.63;2.58;;;;;;;12.61;56.99;96234.34;2073300;28;20053;-57
2023/05/30 01:37:34;;;;;;;5.45;2.90;;;;;;;12.63;56.79;96235.13;2089144;28;20057;-57
2023/05/30 01:38:37;;;;;;;4.60;2.80;;;;;;;12.64;57.09;96239.41;2089628;28;20057;-58
2023/05/30 01:39:38;;;;;;;6.88;2.95;;;;;;;12.69;56.71;96240.00;2089064;28;20056;-58
2023/05/30 01:40:40;;;;;;;9.23;2.90;;;;;;;12.67;57.06;96237.50;2081082;28;20065;-58
2023/05/30 01:42:20;;;;;;;4.88;2.80;;;;;;;12.71;57.48;96233.81;2072934;28;20053;-58
2023/05/30 01:43:24;;;;;;;5.93;2.80;;;;;;;12.69;56.91;96234.81;2075403;28;20071;-58
2023/05/30 01:44:33;;;;;;;5.03;2.80;;;;;;;12.73;56.23;96236.34;2098159;28;20071;-58
2023/05/30 01:45:43;;;;;;;6.40;3.10;;;;;;;12.70;56.45;96239.94;2089660;28;20112;-57
2023/05/30 01:46:48;;;;;;;7.50;3.05;;;;;;;12.65;56.32;96222.88;2090153;28;20061;-58
2023/05/30 01:48:04;;;;;;;7.65;2.97;;;;;;;12.79;56.25;96236.84;2081059;28;20049;-58
2023/05/30 01:49:29;;;;;;;7.38;3.30;;;;;;;12.82;56.35;96242.81;2087755;28;20044;-58
2023/05/30 01:50:43;;;;;;;3.65;2.42;;;;;;;12.77;56.28;96232.63;2077652;28;20049;-58
2023/05/30 01:51:53;;;;;;;6.78;2.90;;;;;;;12.65;55.97;96220.25;2068674;28;20046;-58
2023/05/30 01:52:58;;;;;;;5.95;3.05;;;;;;;12.73;56.78;96236.34;2066571;28;20049;-58
2023/05/30 01:54:00;;;;;;;5.97;3.38;;;;;;;12.68;56.85;96230.53;2066744;28;20164;-57
2023/05/30 01:55:04;;;;;;;7.75;3.30;;;;;;;12.57;56.84;96216.28;2073668;28;20041;-57
2023/05/30 01:56:07;;;;;;;8.30;3.15;;;;;;;12.71;56.56;96228.59;2073597;28;20046;-58
2023/05/30 01:57:16;;;;;;;7.20;3.15;;;;;;;12.58;57.08;96217.94;2073329;28;20050;-58
2023/05/30 01:58:18;;;;;;;5.28;3.05;;;;;;;12.70;56.99;96244.31;2075142;28;20049;-57
2023/05/30 01:59:19;;;;;;;6.18;3.15;;;;;;;12.71;57.04;96233.81;2081292;28;20520;-57
2023/05/30 02:00:20;;;;;;;5.13;3.17;;;;;;;12.70;56.76;96241.72;2065264;28;20046;-57
2023/05/30 02:01:24;;;;;;;7.03;2.90;;;;;;;12.68;56.70;96239.16;2072855;28;20098;-57
2023/05/30 02:02:25;;;;;;;6.25;3.30;;;;;;;12.74;56.80;96241.44;2081365;28;20060;-57
2023/05/30 02:03:28;;;;;;;9.40;3.10;;;;;;;12.63;57.40;96225.53;2089623;28;20037;-58
2023/05/30 02:04:30;;;;;;;5.05;2.97;;;;;;;12.69;57.58;96246.06;2073308;28;20046;-62
2023/05/30 02:05:31;;;;;;;8.20;3.20;;;;;;;12.71;56.60;96240.78;2081100;28;20056;-62
2023/05/30 02:06:32;;;;;;;5.97;3.20;;;;;;;12.70;56.57;96246.94;2097890;28;20043;-62
2023/05/30 02:07:33;;;;;;;8.25;3.45;;;;;;;12.70;56.63;96249.53;2089888;28;20056;-62
2023/05/30 02:08:34;;;;;;;7.32;3.60;;;;;;;12.66;56.40;96248.81;2089081;28;20053;-62
2023/05/30 02:09:36;;;;;;;6.18;3.13;;;;;;;12.68;56.93;96238.34;2089033;28;20053;-62
2023/05/30 02:10:39;;;;;;;6.50;3.08;;;;;;;12.68;56.55;96239.16;2073496;28;20057;-61
2023/05/30 02:11:40;;;;;;;5.68;3.15;;;;;;;12.67;56.39;96245.31;2081498;28;20049;-62
2023/05/30 02:12:41;;;;;;;6.75;3.28;;;;;;;12.61;57.07;96236.97;2081374;28;20070;-62
2023/05/30 02:13:42;;;;;;;6.07;2.83;;;;;;;12.61;56.88;96242.16;2089437;28;20036;-62
2023/05/30 02:14:43;;;;;;;6.15;2.83;;;;;;;12.60;57.45;96245.72;2097412;28;20056;-62
2023/05/30 02:15:44;;;;;;;6.43;3.60;;;;;;;12.48;57.56;96226.31;2088652;28;20543;-62
2023/05/30 02:16:45;;;;;;;5.95;2.92;;;;;;;12.51;57.52;96242.66;2080930;28;20061;-62
2023/05/30 02:17:51;;;;;;;7.40;2.95;;;;;;;12.50;57.45;96235.75;2089557;28;20045;-62
2023/05/30 02:18:52;;;;;;;5.72;3.20;;;;;;;12.40;57.60;96228.47;2088789;28;20057;-62
2023/05/30 02:19:54;;;;;;;6.95;3.30;;;;;;;12.48;58.30;96232.41;2081408;28;20436;-62
2023/05/30 02:20:55;;;;;;;7.05;3.20;;;;;;;12.49;57.69;96239.28;2089112;28;20159;-62
2023/05/30 02:21:56;;;;;;;8.63;3.40;;;;;;;12.46;58.29;96238.59;2088875;28;20048;-62
2023/05/30 02:22:57;;;;;;;8.52;3.35;;;;;;;12.45;58.80;96242.09;2088672;28;20432;-62
2023/05/30 02:23:58;;;;;;;8.55;3.20;;;;;;;12.42;57.96;96242.25;2088766;28;20049;-62
2023/05/30 02:24:59;;;;;;;7.57;3.03;;;;;;;12.46;58.20;96239.44;2081040;28;20049;-62
2023/05/30 02:26:00;;;;;;;6.95;3.38;;;;;;;12.51;58.12;96241.78;2089454;28;20416;-62
2023/05/30 02:27:01;;;;;;;6.80;3.13;;;;;;;12.48;57.96;96248.03;2088912;28;20175;-62
2023/05/30 02:28:03;;;;;;;6.13;3.35;;;;;;;12.39;58.15;96232.00;2089456;28;20044;-62
2023/05/30 02:29:04;;;;;;;5.95;3.22;;;;;;;12.45;58.24;96240.34;2088759;28;20049;-62
2023/05/30 02:30:05;;;;;;;6.03;3.05;;;;;;;12.50;57.63;96242.72;2089025;28;20052;-62
2023/05/30 02:31:07;;;;;;;8.35;2.75;;;;;;;12.45;57.60;96237.72;2088922;28;20044;-62
2023/05/30 02:32:08;;;;;;;8.13;2.88;;;;;;;12.49;57.66;96246.25;2089300;28;20400;-62
2023/05/30 02:33:10;;;;;;;6.15;3.40;;;;;;;12.50;57.81;96240.13;2089618;28;20060;-62
2023/05/30 02:34:11;;;;;;;6.13;2.97;;;;;;;12.50;58.09;96246.16;2089663;28;20052;-61
2023/05/30 02:35:12;;;;;;;8.27;3.13;;;;;;;12.40;58.28;96216.28;2088759;28;20052;-62
2023/05/30 02:36:14;;;;;;;5.63;2.97;;;;;;;12.43;58.21;96229.19;2081007;28;20046;-62
2023/05/30 02:37:15;;;;;;;6.40;3.60;;;;;;;12.43;58.00;96239.59;2081122;28;20050;-62
2023/05/30 02:38:16;;;;;;;5.00;2.97;;;;;;;12.42;58.04;96243.09;2080863;28;20058;-62
2023/05/30 02:39:17;;;;;;;6.57;3.35;;;;;;;12.43;58.41;96239.59;2088239;28;20061;-62
2023/05/30 02:40:18;;;;;;;8.57;3.60;;;;;;;12.42;58.19;96240.50;2089119;28;20053;-62
2023/05/30 02:41:20;;;;;;;5.45;2.85;;;;;;;12.42;58.59;96239.66;2090082;28;20053;-63
2023/05/30 02:42:21;;;;;;;7.45;3.60;;;;;;;12.41;58.95;96240.59;2089123;28;20051;-62
2023/05/30 02:43:22;;;;;;;6.15;3.33;;;;;;;12.27;58.95;96226.50;2080923;28;20053;-62
2023/05/30 02:44:24;;;;;;;8.98;3.40;;;;;;;12.33;58.24;96235.75;2080512;28;20053;-62
2023/05/30 02:45:26;;;;;;;7.07;3.50;;;;;;;12.38;58.51;96238.97;2080322;28;20053;-62
2023/05/30 02:46:27;;;;;;;7.43;3.22;;;;;;;12.36;58.98;96240.81;2081134;28;20053;-62
2023/05/30 02:47:28;;;;;;;10.07;3.17;;;;;;;12.35;59.53;96239.97;2089122;28;20057;-62
2023/05/30 02:48:29;;;;;;;5.72;3.20;;;;;;;12.33;58.48;96240.97;2088501;28;20085;-62
2023/05/30 02:49:33;;;;;;;6.38;3.33;;;;;;;12.33;58.36;96243.59;2080630;28;20108;-62
2023/05/30 02:50:34;;;;;;;8.73;3.42;;;;;;;12.34;59.05;96242.66;2080651;28;20049;-62
2023/05/30 02:51:38;;;;;;;11.70;3.40;;;;;;;12.35;59.15;96241.75;2081258;28;20053;-62
2023/05/30 02:52:41;;;;;;;5.55;3.33;;;;;;;12.39;58.22;96240.66;2081261;28;20050;-62
2023/05/30 02:53:42;;;;;;;9.70;3.70;;;;;;;12.36;58.59;96241.66;2081158;28;20053;-62
2023/05/30 02:54:44;;;;;;;6.97;3.45;;;;;;;12.37;58.86;96242.50;2080027;28;20057;-62
2023/05/30 02:56:05;;;;;;;7.13;3.20;;;;;;;12.42;58.08;96239.66;2072505;28;20046;-62
2023/05/30 02:57:23;;;;;;;5.80;3.17;;;;;;;12.45;58.33;96249.91;2089223;28;20055;-62
2023/05/30 02:58:42;;;;;;;6.07;3.33;;;;;;;12.39;58.42;96247.63;2089511;28;20099;-62
2023/05/30 03:00:02;;;;;;;7.82;3.65;;;;;;;12.36;58.59;96246.88;2090110;28;20131;-62
2023/05/30 03:01:03;;;;;;;8.18;3.63;;;;;;;12.40;58.39;96250.16;2089149;28;20052;-62
2023/05/30 03:02:05;;;;;;;9.98;3.97;;;;;;;12.39;58.38;96253.69;2088506;28;20060;-62
2023/05/30 03:03:09;;;;;;;6.07;3.20;;;;;;;12.39;58.43;96245.88;2080868;28;20050;-62
2023/05/30 03:04:12;;;;;;;5.28;3.35;;;;;;;12.39;58.70;96247.63;2080799;28;20057;-62
2023/05/30 03:05:17;;;;;;;7.38;3.92;;;;;;;12.34;59.20;96246.09;2088623;28;20153;-62
2023/05/30 03:06:18;;;;;;;8.85;3.20;;;;;;;12.33;59.29;96254.84;2089062;28;20060;-62
2023/05/30 03:07:41;;;;;;;5.82;3.33;;;;;;;12.31;58.68;96248.84;2088368;28;20057;-62
2023/05/30 03:08:44;;;;;;;9.73;3.65;;;;;;;12.21;58.48;96238.97;2080637;28;20057;-62
2023/05/30 03:09:45;;;;;;;6.47;3.33;;;;;;;12.32;58.92;96252.28;2080321;28;20049;-62
2023/05/30 03:10:46;;;;;;;9.95;3.80;;;;;;;12.29;58.93;96242.03;2089054;28;20052;-62
2023/05/30 03:11:48;;;;;;;7.28;3.40;;;;;;;12.26;58.90;96244.78;2080279;28;20057;-62
2023/05/30 03:12:49;;;;;;;8.57;3.30;;;;;;;12.25;59.48;96249.16;2080480;28;20511;-62
2023/05/30 03:13:50;;;;;;;8.80;3.85;;;;;;;12.19;59.25;96241.66;2080788;28;20065;-62
2023/05/30 03:14:51;;;;;;;8.40;4.07;;;;;;;12.19;59.96;96243.41;2080164;28;20053;-62
2023/05/30 03:15:52;;;;;;;6.57;3.55;;;;;;;12.16;60.13;96243.56;2080812;28;20057;-62
2023/05/30 03:16:54;;;;;;;5.32;3.13;;;;;;;12.12;60.30;96248.09;2080457;28;20382;-62
2023/05/30 03:17:57;;;;;;;7.78;3.80;;;;;;;12.09;59.78;96243.88;2088764;28;20397;-62
2023/05/30 03:18:58;;;;;;;5.20;3.15;;;;;;;12.15;59.23;96240.13;2088949;28;20057;-62
2023/05/30 03:20:00;;;;;;;5.07;3.17;;;;;;;12.14;59.51;96241.88;2080363;28;20053;-62
2023/05/30 03:21:01;;;;;;;5.18;3.33;;;;;;;12.10;60.33;96236.91;2080246;28;20543;-62
2023/05/30 03:22:02;;;;;;;8.57;3.53;;;;;;;12.13;60.17;96241.94;2080638;28;20053;-62
2023/05/30 03:23:04;;;;;;;10.25;3.63;;;;;;;12.08;60.13;96250.00;2088438;28;20064;-61
2023/05/30 03:24:06;;;;;;;6.80;3.80;;;;;;;12.09;60.74;96246.47;2080772;28;20051;-62
2023/05/30 03:25:13;;;;;;;8.05;3.55;;;;;;;12.08;59.85;96250.00;2073901;28;20046;-62
2023/05/30 03:26:16;;;;;;;9.70;3.72;;;;;;;11.99;60.61;96228.78;2081098;28;20385;-62
2023/05/30 03:27:18;;;;;;;7.07;3.42;;;;;;;12.06;60.90;96248.41;2080512;28;20401;-62
2023/05/30 03:28:22;;;;;;;6.93;3.40;;;;;;;12.04;60.43;96253.66;2081302;28;20057;-62
2023/05/30 03:29:42;;;;;;;6.40;3.55;;;;;;;12.01;59.94;96259.03;2089462;28;20163;-62
2023/05/30 03:30:43;;;;;;;5.90;3.45;;;;;;;12.04;59.91;96256.28;2088492;28;20052;-62
2023/05/30 03:31:45;;;;;;;7.82;3.67;;;;;;;12.02;60.43;96257.25;2088213;28;20061;-62
2023/05/30 03:32:48;;;;;;;6.95;3.20;;;;;;;12.01;60.04;96266.00;2088734;28;20049;-62
2023/05/30 03:33:49;;;;;;;7.80;3.90;;;;;;;12.04;59.96;96258.03;2088553;28;20056;-62
2023/05/30 03:34:52;;;;;;;9.27;3.97;;;;;;;12.07;60.59;96263.09;2080782;28;20044;-62
2023/05/30 03:35:56;;;;;;;7.88;3.63;;;;;;;12.10;60.46;96255.97;2080917;28;20143;-62
2023/05/30 03:36:58;;;;;;;11.70;3.72;;;;;;;12.09;60.24;96263.88;2080646;28;20048;-62
2023/05/30 03:38:01;;;;;;;8.45;3.45;;;;;;;12.13;59.71;96263.66;2080771;28;20076;-62
2023/05/30 03:39:02;;;;;;;7.95;3.78;;;;;;;12.10;60.37;96263.78;2080727;28;20048;-62
2023/05/30 03:40:05;;;;;;;5.32;3.38;;;;;;;12.10;60.77;96252.53;2089160;28;20425;-62
2023/05/30 03:41:06;;;;;;;7.68;3.67;;;;;;;12.09;60.01;96258.66;2096710;28;20045;-62
2023/05/30 03:42:07;;;;;;;7.07;3.90;;;;;;;12.11;59.99;96268.06;2088288;28;20060;-62
2023/05/30 03:43:08;;;;;;;9.55;3.60;;;;;;;12.12;60.57;96261.09;2080541;28;20068;-63
2023/05/30 03:44:09;;;;;;;7.53;3.20;;;;;;;12.13;59.84;96258.44;2080855;28;20045;-62
2023/05/30 03:45:10;;;;;;;8.68;3.80;;;;;;;12.18;60.44;96262.56;2079964;28;20057;-62
2023/05/30 03:46:11;;;;;;;8.93;3.80;;;;;;;12.07;60.14;96250.91;2089117;28;20060;-62
2023/05/30 03:47:13;;;;;;;7.00;3.92;;;;;;;12.13;60.74;96261.03;2089602;28;20047;-62
2023/05/30 03:48:14;;;;;;;9.55;3.70;;;;;;;12.13;60.71;96260.19;2088351;28;20049;-62
2023/05/30 03:49:15;;;;;;;9.40;3.70;;;;;;;12.10;60.48;96261.16;2081015;28;20061;-63
2023/05/30 03:50:16;;;;;;;13.45;4.10;;;;;;;12.12;60.42;96261.09;2088496;28;20057;-62
2023/05/30 03:51:17;;;;;;;7.20;3.90;;;;;;;12.18;60.84;96259.97;2089897;28;20064;-62
2023/05/30 03:52:18;;;;;;;8.10;3.35;;;;;;;12.19;59.98;96261.63;2082540;28;20064;-62
2023/05/30 03:53:19;;;;;;;9.93;3.75;;;;;;;12.20;59.73;96252.91;2090608;28;20091;-62
2023/05/30 03:54:20;;;;;;;8.45;3.67;;;;;;;12.23;60.29;96255.38;2081683;28;20516;-62
2023/05/30 03:55:21;;;;;;;8.23;3.50;;;;;;;12.20;59.69;96258.13;2082345;28;20049;-62
2023/05/30 03:56:23;;;;;;;9.52;3.95;;;;;;;12.12;59.74;96235.91;2090809;28;20045;-62
2023/05/30 03:57:24;;;;;;;8.40;3.50;;;;;;;12.28;59.67;96258.59;2090262;28;20063;-61
2023/05/30 03:58:25;;;;;;;6.05;3.58;;;;;;;12.31;59.89;96266.25;2089952;28;20057;-62
2023/05/30 03:59:26;;;;;;;7.45;4.10;;;;;;;12.28;59.82;96263.78;2090544;28;20432;-62
2023/05/30 04:00:27;;;;;;;8.48;3.85;;;;;;;12.28;59.91;96262.03;2091149;28;20048;-63
2023/05/30 04:01:33;;;;;;;8.52;3.88;;;;;;;12.31;59.74;96266.25;2090356;28;20056;-62
2023/05/30 04:02:34;;;;;;;8.20;3.40;;;;;;;12.23;59.94;96253.59;2081894;28;20059;-62
2023/05/30 04:03:37;;;;;;;6.45;3.92;;;;;;;12.31;60.39;96263.63;2089892;28;20424;-62
2023/05/30 04:04:38;;;;;;;9.40;4.05;;;;;;;12.33;59.80;96264.41;2090517;28;20048;-62
2023/05/30 04:05:40;;;;;;;6.28;3.60;;;;;;;12.32;59.69;96270.53;2082344;28;20049;-62
2023/05/30 04:06:41;;;;;;;6.10;3.70;;;;;;;12.33;59.91;96270.47;2082168;28;20106;-62
2023/05/30 04:07:42;;;;;;;7.57;3.88;;;;;;;12.35;60.05;96276.44;2090141;28;20061;-62
2023/05/30 04:08:43;;;;;;;9.48;3.92;;;;;;;12.39;60.25;96278.88;2090769;28;20446;-62
2023/05/30 04:09:44;;;;;;;10.98;3.72;;;;;;;12.37;59.83;96278.94;2090523;28;20060;-62
2023/05/30 04:10:45;;;;;;;8.07;3.67;;;;;;;12.39;60.33;96273.69;2089861;28;20052;-62
2023/05/30 04:11:46;;;;;;;7.43;3.60;;;;;;;12.43;59.98;96280.41;2089897;28;20053;-62
2023/05/30 04:12:48;;;;;;;7.72;3.65;;;;;;;12.44;59.80;96275.13;2090289;28;20040;-62
2023/05/30 04:13:50;;;;;;;8.43;3.50;;;;;;;12.46;60.26;96282.88;2081968;28;20131;-62
2023/05/30 04:14:51;;;;;;;7.22;3.33;;;;;;;12.50;60.19;96279.19;2082096;28;20049;-62
2023/05/30 04:15:52;;;;;;;8.63;3.72;;;;;;;12.47;59.69;96285.38;2081925;28;20436;-62
2023/05/30 04:16:54;;;;;;;9.82;3.80;;;;;;;12.52;59.91;96275.59;2081882;28;20093;-62
2023/05/30 04:17:57;;;;;;;10.07;4.15;;;;;;;12.43;59.50;96263.03;2090553;28;20047;-62
2023/05/30 04:18:58;;;;;;;8.70;4.40;;;;;;;12.47;59.43;96272.38;2090951;28;20056;-62
2023/05/30 04:19:59;;;;;;;7.07;4.15;;;;;;;12.55;60.21;96285.84;2089746;28;20048;-62
2023/05/30 04:21:00;;;;;;;8.00;3.80;;;;;;;12.57;59.55;96288.38;2081928;28;20428;-62
2023/05/30 04:22:01;;;;;;;7.78;3.45;;;;;;;12.59;59.90;96283.94;2089744;28;20053;-62
2023/05/30 04:23:03;;;;;;;5.65;3.50;;;;;;;12.61;59.75;96279.47;2081771;28;20052;-62
2023/05/30 04:24:04;;;;;;;7.63;3.53;;;;;;;12.61;59.46;96287.28;2089602;28;20353;-62
2023/05/30 04:25:05;;;;;;;6.90;3.85;;;;;;;12.56;60.08;96279.75;2089783;28;20036;-62
2023/05/30 04:26:08;;;;;;;9.00;4.03;;;;;;;12.64;59.50;96283.69;2082067;28;20041;-62
2023/05/30 04:27:11;;;;;;;5.70;3.80;;;;;;;12.64;59.27;96287.13;2081563;28;20049;-62
2023/05/30 04:28:12;;;;;;;7.90;4.03;;;;;;;12.66;59.65;96282.69;2090418;28;20040;-62
2023/05/30 04:29:13;;;;;;;13.88;4.35;;;;;;;12.66;59.69;96282.69;2089710;28;20056;-62
2023/05/30 04:30:15;;;;;;;9.27;4.38;;;;;;;12.70;59.61;96286.00;2089983;28;20060;-62
2023/05/30 04:31:17;;;;;;;11.10;3.97;;;;;;;12.69;59.44;96285.16;2089535;28;20052;-62
2023/05/30 04:32:18;;;;;;;8.90;3.60;;;;;;;12.72;59.04;96287.63;2082237;28;20045;-62
2023/05/30 04:33:20;;;;;;;6.15;3.78;;;;;;;12.64;59.35;96268.06;2090325;28;20139;-62
2023/05/30 04:34:22;;;;;;;6.82;4.03;;;;;;;12.68;59.35;96272.22;2090225;28;20087;-59
2023/05/30 04:35:24;;;;;;;6.68;3.42;;;;;;;12.58;60.00;96264.84;2082035;28;20053;-59
2023/05/30 04:36:27;;;;;;;13.20;3.72;;;;;;;12.74;59.49;96284.91;2082035;28;20052;-59
2023/05/30 04:37:28;;;;;;;11.05;4.13;;;;;;;12.75;59.59;96282.25;2081516;28;20441;-59
2023/05/30 04:38:32;;;;;;;6.00;4.03;;;;;;;12.61;60.13;96260.41;2082201;28;20513;-59
2023/05/30 04:39:35;;;;;;;12.38;4.63;;;;;;;12.75;60.52;96286.59;2089967;28;20057;-59
2023/05/30 04:40:36;;;;;;;9.00;4.20;;;;;;;12.76;59.90;96283.09;2089467;28;20479;-59
2023/05/30 04:41:40;;;;;;;9.52;3.90;;;;;;;12.78;59.95;96286.47;2081580;28;20057;-59
2023/05/30 04:42:41;;;;;;;6.65;4.18;;;;;;;12.81;60.46;96286.28;2082182;28;20049;-59
2023/05/30 04:43:44;;;;;;;9.88;4.03;;;;;;;12.84;60.17;96286.13;2081602;28;20053;-59
2023/05/30 04:44:45;;;;;;;9.52;3.92;;;;;;;12.86;59.84;96286.06;2082059;28;20057;-60
2023/05/30 04:45:49;;;;;;;13.70;4.13;;;;;;;12.85;60.51;96286.97;2081653;28;20057;-59
2023/05/30 04:46:50;;;;;;;8.55;4.03;;;;;;;12.80;59.36;96277.63;2090431;28;20041;-59
2023/05/30 04:47:51;;;;;;;9.73;4.10;;;;;;;12.93;59.64;96293.47;2098146;28;20499;-59
2023/05/30 04:48:55;;;;;;;11.70;4.30;;;;;;;12.97;59.51;96305.44;2089766;28;20045;-59
2023/05/30 04:50:00;;;;;;;7.80;4.03;;;;;;;12.95;59.26;96296.84;2081788;28;20049;-59
2023/05/30 04:51:01;;;;;;;8.02;3.80;;;;;;;13.00;59.50;96296.63;2089467;28;20045;-59
2023/05/30 04:52:04;;;;;;;6.97;3.80;;;;;;;13.01;59.15;96306.09;2081665;28;20057;-59
2023/05/30 04:53:05;;;;;;;8.30;3.88;;;;;;;13.07;59.73;96302.34;2089378;28;20052;-59
2023/05/30 04:54:07;;;;;;;9.35;4.28;;;;;;;13.13;59.58;96300.25;2090394;28;20045;-59
2023/05/30 04:55:10;;;;;;;7.40;3.95;;;;;;;13.17;59.64;96304.38;2089689;28;20053;-59
2023/05/30 04:56:11;;;;;;;5.70;3.70;;;;;;;13.24;59.08;96310.97;2089794;28;20044;-59
2023/05/30 04:57:12;;;;;;;6.65;3.58;;;;;;;13.22;58.75;96302.38;2089681;28;20048;-60
2023/05/30 04:58:13;;;;;;;10.07;4.20;;;;;;;13.21;59.27;96295.47;2073544;28;20482;-59